createdAt,value
2022-10-22T00:02:29.816Z,12.92
2022-10-22T00:05:31.333Z,12.93
2022-10-22T00:08:33.105Z,12.93
2022-10-22T00:11:34.626Z,13.01
2022-10-22T00:14:36.564Z,13.04
2022-10-22T00:17:38.333Z,13.04
2022-10-22T00:20:40.317Z,13.06
2022-10-22T00:23:43.041Z,13.07
2022-10-22T00:26:44.553Z,12.94
2022-10-22T00:29:46.023Z,12.81
2022-10-22T00:32:47.954Z,12.80
2022-10-22T00:35:49.403Z,12.92
2022-10-22T00:38:50.855Z,12.91
2022-10-22T00:41:54.000Z,12.97
2022-10-22T00:45:24.658Z,12.92
2022-10-22T00:48:29.936Z,12.80
2022-10-22T00:51:35.562Z,12.83
2022-10-22T00:54:38.325Z,12.87
2022-10-22T00:57:40.667Z,12.87
2022-10-22T01:00:42.833Z,12.89
2022-10-22T01:03:44.358Z,12.86
2022-10-22T01:06:47.299Z,12.82
2022-10-22T01:10:17.311Z,12.82
2022-10-22T01:13:39.664Z,12.82
2022-10-22T01:16:59.264Z,12.75
2022-10-22T01:20:24.019Z,12.65
2022-10-22T01:23:50.595Z,12.69
2022-10-22T01:27:24.265Z,12.73
2022-10-22T01:30:26.096Z,12.77
2022-10-22T01:33:29.305Z,12.78
2022-10-22T01:36:33.012Z,12.79
2022-10-22T01:39:36.684Z,12.77
2022-10-22T01:42:38.130Z,12.78
2022-10-22T01:45:45.778Z,12.74
2022-10-22T01:49:16.493Z,12.83
2022-10-22T01:52:34.483Z,12.84
2022-10-22T01:56:12.971Z,12.86
2022-10-22T01:59:29.407Z,12.84
2022-10-22T02:02:43.266Z,12.60
2022-10-22T02:06:01.667Z,12.52
2022-10-22T02:09:04.355Z,12.54
2022-10-22T02:12:08.815Z,12.60
2022-10-22T02:15:12.054Z,12.64
2022-10-22T02:18:20.633Z,12.78
2022-10-22T02:21:22.366Z,12.84
2022-10-22T02:24:24.237Z,12.88
2022-10-22T02:27:49.128Z,12.88
2022-10-22T02:30:59.541Z,12.93
2022-10-22T02:34:10.027Z,12.96
2022-10-22T02:37:12.404Z,12.94
2022-10-22T02:40:13.924Z,12.90
2022-10-22T02:43:15.508Z,12.83
2022-10-22T02:46:17.119Z,12.78
2022-10-22T02:49:18.603Z,12.70
2022-10-22T02:52:20.291Z,12.73
2022-10-22T02:55:21.953Z,12.73
2022-10-22T02:58:23.451Z,12.68
2022-10-22T03:01:24.955Z,12.65
2022-10-22T03:04:26.480Z,12.67
2022-10-22T03:07:27.946Z,12.61
2022-10-22T03:10:29.453Z,12.62
2022-10-22T03:13:30.908Z,12.61
2022-10-22T03:16:32.406Z,12.62
2022-10-22T03:19:33.924Z,12.58
2022-10-22T03:22:38.713Z,12.57
2022-10-22T03:25:41.988Z,12.60
2022-10-22T03:28:43.836Z,12.54
2022-10-22T03:31:45.351Z,12.49
2022-10-22T03:34:47.034Z,12.42
2022-10-22T03:37:48.841Z,12.38
2022-10-22T03:40:50.614Z,12.27
2022-10-22T03:43:53.283Z,12.28
2022-10-22T03:46:58.609Z,12.22
2022-10-22T03:50:05.324Z,12.22
2022-10-22T03:53:08.548Z,12.24
2022-10-22T03:56:11.486Z,12.21
2022-10-22T03:59:13.187Z,12.19
2022-10-22T04:02:14.740Z,12.19
2022-10-22T04:05:16.226Z,12.18
2022-10-22T04:08:17.743Z,12.13
2022-10-22T04:11:19.304Z,12.08
2022-10-22T04:14:20.756Z,12.01
2022-10-22T04:17:22.206Z,11.97
2022-10-22T04:20:23.695Z,11.92
2022-10-22T04:23:25.201Z,11.92
2022-10-22T04:26:27.272Z,11.91
2022-10-22T04:29:28.700Z,11.95
2022-10-22T04:32:30.208Z,12.01
2022-10-22T04:35:31.683Z,12.12
2022-10-22T04:38:33.149Z,12.20
2022-10-22T04:41:37.541Z,12.12
2022-10-22T04:44:39.088Z,11.96
2022-10-22T04:47:42.745Z,12.04
2022-10-22T04:50:44.409Z,11.99
2022-10-22T04:53:49.630Z,11.96
2022-10-22T04:56:51.099Z,11.99
2022-10-22T04:59:52.513Z,11.98
2022-10-22T05:02:53.983Z,11.97
2022-10-22T05:05:55.396Z,11.98
2022-10-22T05:08:59.323Z,11.98
2022-10-22T05:12:00.835Z,11.99
2022-10-22T05:15:02.275Z,11.97
2022-10-22T05:18:03.942Z,11.96
2022-10-22T05:21:09.456Z,11.97
2022-10-22T05:24:10.992Z,11.98
2022-10-22T05:27:12.537Z,11.98
2022-10-22T05:30:14.014Z,11.97
2022-10-22T05:33:15.684Z,11.96
2022-10-22T05:36:20.121Z,11.94
2022-10-22T05:39:21.646Z,11.90
2022-10-22T05:42:23.367Z,11.87
2022-10-22T05:45:24.853Z,11.84
2022-10-22T05:48:26.398Z,11.79
2022-10-22T05:51:30.220Z,11.82
2022-10-22T05:54:31.696Z,11.75
2022-10-22T05:57:36.187Z,11.79
2022-10-22T06:00:37.720Z,11.81
2022-10-22T06:03:39.276Z,11.71
2022-10-22T06:06:44.404Z,11.75
2022-10-22T06:09:47.638Z,11.70
2022-10-22T06:12:49.653Z,11.70
2022-10-22T06:15:53.421Z,11.70
2022-10-22T06:18:54.968Z,11.71
2022-10-22T06:21:56.581Z,11.76
2022-10-22T06:24:58.057Z,11.80
2022-10-22T06:27:59.719Z,11.86
2022-10-22T06:31:03.184Z,11.83
2022-10-22T06:34:07.241Z,11.91
2022-10-22T06:37:09.957Z,11.89
2022-10-22T06:40:12.048Z,11.87
2022-10-22T06:43:14.916Z,11.88
2022-10-22T06:46:19.990Z,11.86
2022-10-22T06:49:21.898Z,11.81
2022-10-22T06:52:23.604Z,11.77
2022-10-22T06:55:25.263Z,11.82
2022-10-22T06:58:26.921Z,11.86
2022-10-22T07:01:31.433Z,11.89
2022-10-22T07:04:33.000Z,11.92
2022-10-22T07:07:37.527Z,12.03
2022-10-22T07:10:46.489Z,12.13
2022-10-22T07:13:49.092Z,12.22
2022-10-22T07:16:50.549Z,12.32
2022-10-22T07:19:52.107Z,12.51
2022-10-22T07:22:56.396Z,12.57
2022-10-22T07:29:28.393Z,13.05
2022-10-22T07:32:29.866Z,13.25
2022-10-22T07:35:32.078Z,13.35
2022-10-22T07:38:34.161Z,13.58
2022-10-22T07:41:35.664Z,13.76
2022-10-22T07:44:37.164Z,13.83
2022-10-22T07:47:42.554Z,13.90
2022-10-22T07:53:52.264Z,14.27
2022-10-22T07:56:53.762Z,14.44
2022-10-22T07:59:57.141Z,14.84
2022-10-22T08:02:58.696Z,14.92
2022-10-22T08:06:00.949Z,14.96
2022-10-22T08:09:03.149Z,15.05
2022-10-22T08:12:05.304Z,15.12
2022-10-22T08:15:07.791Z,15.22
2022-10-22T08:18:09.975Z,15.23
2022-10-22T08:21:12.548Z,15.04
2022-10-22T08:24:14.884Z,14.94
2022-10-22T08:27:16.444Z,14.90
2022-10-22T08:30:18.093Z,14.89
2022-10-22T08:33:19.623Z,14.89
2022-10-22T08:36:24.187Z,14.85
2022-10-22T08:39:26.001Z,14.95
2022-10-22T08:42:27.480Z,15.06
2022-10-22T08:45:40.458Z,15.14
2022-10-22T08:48:58.800Z,15.28
2022-10-22T08:52:00.846Z,15.31
2022-10-22T08:55:03.401Z,15.47
2022-10-22T08:58:34.180Z,15.48
2022-10-22T09:01:39.813Z,15.59
2022-10-22T09:04:49.762Z,15.68
2022-10-22T09:07:53.049Z,15.81
2022-10-22T09:11:07.163Z,15.93
2022-10-22T09:17:33.901Z,16.16
2022-10-22T09:20:44.365Z,16.33
2022-10-22T09:23:54.911Z,16.47
2022-10-22T09:26:57.537Z,16.63
2022-10-22T09:30:01.774Z,16.68
2022-10-22T09:33:11.456Z,16.64
2022-10-22T09:36:18.484Z,16.75
2022-10-22T09:39:33.629Z,17.10
2022-10-22T09:42:36.129Z,17.44
2022-10-22T09:45:37.605Z,17.59
2022-10-22T09:48:42.821Z,17.65
2022-10-22T09:51:57.524Z,17.62
2022-10-22T09:55:02.641Z,17.67
2022-10-22T09:58:04.812Z,17.74
2022-10-22T10:01:06.227Z,17.66
2022-10-22T10:04:14.001Z,17.79
2022-10-22T10:07:20.515Z,17.93
2022-10-22T10:10:50.989Z,17.96
2022-10-22T10:14:09.538Z,17.86
2022-10-22T10:17:18.234Z,17.76
2022-10-22T10:20:47.552Z,17.73
2022-10-22T10:24:33.764Z,17.83
2022-10-22T10:27:39.975Z,17.89
2022-10-22T10:31:16.695Z,17.96
2022-10-22T10:34:37.084Z,18.04
2022-10-22T10:37:46.101Z,18.06
2022-10-22T10:41:17.408Z,18.07
2022-10-22T10:44:37.013Z,18.22
2022-10-22T10:47:56.764Z,18.19
2022-10-22T10:51:13.389Z,18.20
2022-10-22T10:54:29.970Z,18.30
2022-10-22T10:57:45.515Z,18.37
2022-10-22T11:00:56.926Z,18.54
2022-10-22T11:04:31.064Z,18.53
2022-10-22T11:07:40.345Z,18.62
2022-10-22T11:14:27.802Z,18.69
2022-10-22T11:17:45.458Z,18.89
2022-10-22T11:21:19.073Z,19.00
2022-10-22T11:24:26.988Z,19.07
2022-10-22T11:27:32.162Z,19.10
2022-10-22T11:30:36.340Z,19.09
2022-10-22T11:34:09.819Z,19.01
2022-10-22T11:37:18.167Z,19.11
2022-10-22T11:40:22.509Z,19.26
2022-10-22T11:43:37.569Z,19.56
2022-10-22T11:46:55.208Z,19.66
2022-10-22T11:49:56.676Z,19.48
2022-10-22T11:53:15.182Z,19.43
2022-10-22T11:56:27.428Z,19.27
2022-10-22T11:59:59.736Z,19.42
2022-10-22T12:03:16.980Z,19.41
2022-10-22T12:06:23.050Z,19.50
2022-10-22T12:09:30.015Z,19.60
2022-10-22T12:12:36.413Z,19.72
2022-10-22T12:15:48.540Z,19.78
2022-10-22T12:18:57.375Z,19.87
2022-10-22T12:22:07.840Z,19.83
2022-10-22T12:25:17.099Z,19.83
2022-10-22T12:28:19.004Z,19.84
2022-10-22T12:31:20.461Z,19.91
2022-10-22T12:34:24.969Z,19.89
2022-10-22T12:37:29.300Z,19.96
2022-10-22T12:40:34.764Z,19.93
2022-10-22T12:43:39.433Z,19.93
2022-10-22T12:46:42.449Z,19.94
2022-10-22T12:49:49.999Z,19.94
2022-10-22T12:52:55.115Z,19.95
2022-10-22T12:56:01.316Z,19.93
2022-10-22T12:59:07.926Z,19.91
2022-10-22T13:02:19.180Z,19.93
2022-10-22T13:05:20.673Z,19.94
2022-10-22T13:08:26.764Z,19.96
2022-10-22T13:11:33.900Z,19.91
2022-10-22T13:14:39.081Z,19.99
2022-10-22T13:17:42.237Z,19.99
2022-10-22T13:21:03.150Z,19.93
2022-10-22T13:24:23.045Z,19.95
2022-10-22T13:27:26.163Z,19.95
2022-10-22T13:30:33.930Z,20.08
2022-10-22T13:33:44.866Z,20.17
2022-10-22T13:36:46.829Z,20.16
2022-10-22T13:39:48.288Z,20.07
2022-10-22T13:42:49.935Z,19.84
2022-10-22T13:46:09.231Z,19.91
2022-10-22T13:49:20.153Z,20.19
2022-10-22T13:52:29.558Z,20.24
2022-10-22T13:55:31.574Z,20.18
2022-10-22T13:58:33.099Z,20.28
2022-10-22T14:01:34.793Z,20.28
2022-10-22T14:04:39.830Z,20.16
2022-10-22T14:07:41.989Z,20.25
2022-10-22T14:10:43.733Z,20.22
2022-10-22T14:13:45.432Z,20.38
2022-10-22T14:16:50.026Z,20.56
2022-10-22T14:19:51.563Z,20.79
2022-10-22T14:22:55.115Z,20.95
2022-10-22T14:26:00.528Z,21.01
2022-10-22T14:29:11.446Z,21.11
2022-10-22T14:32:22.067Z,21.44
2022-10-22T14:35:24.100Z,21.63
2022-10-22T14:38:25.735Z,22.42
2022-10-22T14:41:28.961Z,23.98
2022-10-22T14:44:30.714Z,25.07
2022-10-22T14:47:32.321Z,24.56
2022-10-22T14:50:34.248Z,23.20
2022-10-22T14:53:36.625Z,22.27
2022-10-22T14:56:38.306Z,21.54
2022-10-22T14:59:42.705Z,20.96
2022-10-22T15:02:48.126Z,20.77
2022-10-22T15:05:53.658Z,20.64
2022-10-22T15:08:55.184Z,20.48
2022-10-22T15:11:56.888Z,20.31
2022-10-22T15:14:58.393Z,20.16
2022-10-22T15:18:00.029Z,20.02
2022-10-22T15:21:22.599Z,19.88
2022-10-22T15:24:24.121Z,19.77
2022-10-22T15:27:25.784Z,19.67
2022-10-22T15:30:30.450Z,19.45
2022-10-22T15:33:32.130Z,19.27
2022-10-22T15:36:35.545Z,19.14
2022-10-22T15:39:40.668Z,19.21
2022-10-22T15:42:42.688Z,19.20
2022-10-22T15:45:44.440Z,19.11
2022-10-22T15:48:46.360Z,18.94
2022-10-22T15:51:47.868Z,18.72
2022-10-22T15:54:49.667Z,18.47
2022-10-22T16:01:14.392Z,17.98
2022-10-22T16:04:16.156Z,17.80
2022-10-22T16:07:19.825Z,17.60
2022-10-22T16:10:28.065Z,17.36
2022-10-22T16:13:29.778Z,17.16
2022-10-22T16:16:33.596Z,16.89
2022-10-22T16:19:35.133Z,16.69
2022-10-22T16:22:36.667Z,16.45
2022-10-22T16:25:41.622Z,16.22
2022-10-22T16:28:44.826Z,16.13
2022-10-22T16:31:46.447Z,15.93
2022-10-22T16:34:47.965Z,15.77
2022-10-22T16:37:49.484Z,15.61
2022-10-22T16:40:51.269Z,15.49
2022-10-22T16:43:55.089Z,15.37
2022-10-22T16:46:56.748Z,15.30
2022-10-22T16:50:00.822Z,15.20
2022-10-22T16:53:02.279Z,15.10
2022-10-22T16:56:04.284Z,14.98
2022-10-22T16:59:06.266Z,14.92
2022-10-22T17:02:12.467Z,14.86
2022-10-22T17:05:14.124Z,14.79
2022-10-22T17:08:15.636Z,14.68
2022-10-22T17:11:20.364Z,14.64
2022-10-22T17:14:21.861Z,14.59
2022-10-22T17:17:23.360Z,14.48
2022-10-22T17:20:24.882Z,14.27
2022-10-22T17:23:28.561Z,14.12
2022-10-22T17:26:33.123Z,13.97
2022-10-22T17:29:38.594Z,14.00
2022-10-22T17:32:40.321Z,14.02
2022-10-22T17:35:48.504Z,14.06
2022-10-22T17:38:56.256Z,13.99
2022-10-22T17:41:57.853Z,14.00
2022-10-22T17:44:59.429Z,13.93
2022-10-22T17:48:01.351Z,13.90
2022-10-22T17:51:14.075Z,13.83
2022-10-22T17:54:15.760Z,13.82
2022-10-22T17:57:17.569Z,13.81
2022-10-22T18:03:27.795Z,13.65
2022-10-22T18:06:30.748Z,13.69
2022-10-22T18:09:32.245Z,13.70
2022-10-22T18:12:33.715Z,13.69
2022-10-22T18:15:36.439Z,13.62
2022-10-22T18:18:38.069Z,13.55
2022-10-22T18:21:39.524Z,13.53
2022-10-22T18:24:41.136Z,13.50
2022-10-22T18:27:43.118Z,13.46
2022-10-22T18:30:46.106Z,13.42
2022-10-22T18:33:48.322Z,13.34
2022-10-22T18:36:49.868Z,13.29
2022-10-22T18:39:51.457Z,13.31
2022-10-22T18:42:53.003Z,13.31
2022-10-22T18:45:54.492Z,13.26
2022-10-22T18:48:57.823Z,13.15
2022-10-22T18:51:59.377Z,13.08
2022-10-22T18:55:01.037Z,13.00
2022-10-22T18:58:08.549Z,13.04
2022-10-22T19:01:12.862Z,13.01
2022-10-22T19:04:14.951Z,12.96
2022-10-22T19:07:16.453Z,12.83
2022-10-22T19:10:18.685Z,12.79
2022-10-22T19:13:23.112Z,12.69
2022-10-22T19:16:26.646Z,12.67
2022-10-22T19:19:28.200Z,12.70
2022-10-22T19:22:29.850Z,12.71
2022-10-22T19:25:31.737Z,12.69
2022-10-22T19:28:33.401Z,12.64
2022-10-22T19:31:34.897Z,12.50
2022-10-22T19:34:36.956Z,12.50
2022-10-22T19:37:38.545Z,12.50
2022-10-22T19:40:43.048Z,12.50
2022-10-22T19:43:47.884Z,12.49
2022-10-22T19:46:49.373Z,12.47
2022-10-22T19:49:50.942Z,12.47
2022-10-22T19:52:52.514Z,12.46
2022-10-22T19:55:54.040Z,12.46
2022-10-22T19:58:55.652Z,12.51
2022-10-22T20:01:58.759Z,12.54
2022-10-22T20:05:00.232Z,12.50
2022-10-22T20:08:01.680Z,12.43
2022-10-22T20:11:06.797Z,12.29
2022-10-22T20:14:08.224Z,12.39
2022-10-22T20:17:09.736Z,12.39
2022-10-22T20:20:11.179Z,12.42
2022-10-22T20:23:12.781Z,12.39
2022-10-22T20:26:14.384Z,12.39
2022-10-22T20:29:19.012Z,12.41
2022-10-22T20:32:22.017Z,12.48
2022-10-22T20:35:23.516Z,12.47
2022-10-22T20:38:28.472Z,12.44
2022-10-22T20:41:30.060Z,12.38
2022-10-22T20:44:31.639Z,12.42
2022-10-22T20:47:44.524Z,12.48
2022-10-22T20:50:54.103Z,12.57
2022-10-22T20:53:55.742Z,12.63
2022-10-22T20:56:57.621Z,12.70
2022-10-22T20:59:59.110Z,12.81
2022-10-22T21:03:00.608Z,12.86
2022-10-22T21:06:02.166Z,12.86
2022-10-22T21:09:08.322Z,12.80
2022-10-22T21:12:09.922Z,12.71
2022-10-22T21:15:12.755Z,12.71
2022-10-22T21:18:14.504Z,12.68
2022-10-22T21:21:17.586Z,12.61
2022-10-22T21:24:19.727Z,12.58
2022-10-22T21:27:21.230Z,12.56
2022-10-22T21:30:22.846Z,12.52
2022-10-22T21:33:24.343Z,12.47
2022-10-22T21:36:26.069Z,12.39
2022-10-22T21:39:27.539Z,12.37
2022-10-22T21:42:29.158Z,12.32
2022-10-22T21:45:30.627Z,12.30
2022-10-22T21:48:32.140Z,12.27
2022-10-22T21:51:35.339Z,12.23
2022-10-22T21:54:37.431Z,12.19
2022-10-22T21:57:39.089Z,12.19
2022-10-22T22:00:40.793Z,12.18
2022-10-22T22:03:45.267Z,12.17
2022-10-22T22:06:46.809Z,12.16
2022-10-22T22:09:51.521Z,12.14
2022-10-22T22:12:53.147Z,12.16
2022-10-22T22:15:59.668Z,12.16
2022-10-22T22:22:10.980Z,12.16
2022-10-22T22:25:12.478Z,12.14
2022-10-22T22:28:13.971Z,12.11
2022-10-22T22:31:34.999Z,12.02
2022-10-22T22:34:36.766Z,12.04
2022-10-22T22:37:38.341Z,12.01
2022-10-22T22:40:41.126Z,12.01
2022-10-22T22:43:42.682Z,11.95
2022-10-22T22:46:44.347Z,11.93
2022-10-22T22:49:45.796Z,11.91
2022-10-22T22:52:47.503Z,11.91
2022-10-22T22:55:49.237Z,11.87
2022-10-22T22:58:51.333Z,11.82
2022-10-22T23:01:52.907Z,11.81
2022-10-22T23:04:54.422Z,11.69
2022-10-22T23:07:57.217Z,11.74
2022-10-22T23:11:09.453Z,11.75
2022-10-22T23:14:16.759Z,11.75
2022-10-22T23:17:19.218Z,11.75
2022-10-22T23:20:20.719Z,11.75
2022-10-22T23:23:22.240Z,11.76
2022-10-22T23:26:26.825Z,11.76
2022-10-22T23:29:30.892Z,11.76
2022-10-22T23:32:32.369Z,11.75
2022-10-22T23:35:33.865Z,11.77
2022-10-22T23:38:36.560Z,11.82
2022-10-22T23:41:38.366Z,11.90
2022-10-22T23:44:39.828Z,11.95
2022-10-22T23:47:41.505Z,12.03
2022-10-22T23:50:43.190Z,12.12
2022-10-22T23:53:45.132Z,12.20
2022-10-22T23:56:47.276Z,12.27
2022-10-22T23:59:48.712Z,12.34
